• Join FlightAware (Why Join?)
  • Login
  • US Flag 
03:18AM EDT


 

Airport Tracker/Info


-or-


 

Live Flight TrackerFlight Track Log ✈ EJA914 ✈ 03-Jul-2014 ✈ KMMU - KACK

Flight Track Log - Related Links

Times and Time Zones

All times are in EDT time to prevent confusion due to time zone crossing. See the EJA914 flight status page for this flight to view local times or setup timezone preferences in your user account.

Time Position Orientation Groundspeed Altitude Reporting Facility
EDT Latitude Longitude Course Direction KTS MPH feet Rate Location/Type
09:42AM 40.7333 -74.4000 37° Northeast 240 276 4,500  Level New York TRACON
09:43AM 40.7833 -74.3500 37° Northeast 284 327 6,100 780 Climbing New York TRACON
09:44AM 40.8667 -74.3000 24° Northeast 296 341 6,100  Level New York TRACON
09:45AM 40.9333 -74.2667 21° North 294 338 6,100  Level New York TRACON
09:47AM 41.0833 -74.1833 37° Northeast 302 348 6,100 60 Level New York TRACON
09:48AM 41.1500 -74.1167 37° Northeast 298 343 6,300 1,260 Climbing New York TRACON
09:50AM 41.2136 -73.8831 56° Northeast 307 353 10,300 1,380 Climbing Boston Center
09:51AM 41.2403 -73.7678 73° East 324 373 11,000 420 Climbing Boston Center
09:52AM 41.2667 -73.6519 73° East 328 377 11,200 1,080 Climbing Boston Center
09:53AM 41.2997 -73.5058 73° East 384 442 13,300 1,800 Climbing Boston Center
09:54AM 41.3328 -73.3622 73° East 406 467 15,000 1,680 Climbing Boston Center
09:55AM 41.3656 -73.2089 74° East 423 487 16,800 960 Climbing Boston Center
09:56AM 41.4347 -73.0708 56° Northeast 414 476 17,000 60 Climbing Boston Center
09:57AM 41.4764 -72.9508 65° Northeast 366 421 17,000  Level Boston Center
09:58AM 41.4883 -72.8250 83° East 347 399 17,000  Level Boston Center
10:00AM 41.4828 -72.6914 93° East 343 395 17,000  Level Boston Center
10:01AM 41.4717 -72.5675 97° East 341 392 17,000  Level Boston Center
10:02AM 41.4594 -72.4336 97° East 341 392 17,000  Level Boston Center
10:04AM 41.4344 -72.1733 97° East 360 414 17,000  Level Boston Center
10:05AM 41.4217 -72.0250 97° East 373 429 17,000  Level Boston Center
10:06AM 41.4075 -71.8875 98° East 374 430 17,000  Level Boston Center
10:08AM 41.3806 -71.6156 97° East 352 405 17,000 -480 Level Boston Center
10:10AM 41.3647 -71.4070 119° Southeast  Level Estimated
10:11AM 41.2928 -71.2578 119° Southeast 331 381 14,800  Level Boston Center
10:12AM 41.2494 -71.1522 119° Southeast 326 375 13,200 -1,620 Descending Boston Center
10:13AM 41.2031 -71.0453 120° Southeast 313 360 11,600 -1,140 Descending Boston Center
10:14AM 41.1628 -70.9464 118° Southeast 307 353 10,900 -660 Descending Boston Center
10:15AM 41.1522 -70.8594 99° East 275 316 10,300 -960 Descending Boston Center
10:16AM 41.1331 -70.7486 103° East 258 297 9,000 -1,200 Descending Boston Center
10:17AM 41.0756 -70.7147 156° South 229 264 7,900 -960 Descending Boston Center
10:18AM 41.0186 -70.6861 159° South 224 258 7,100 -240 Descending Boston Center
10:21AM 41.1319 -70.5739 317° Northwest 219 252 7,100  Level Boston Center
10:22AM 41.1031 -70.5111 121° Southeast 200 230 7,100  Level Boston Center
10:23AM 41.0858 -70.4336 106° East 201 231 7,100 -240 Level Boston Center
10:24AM 41.0900 -70.3578 86° East 207 238 6,600 -540 Descending Boston Center
10:25AM 41.0997 -70.2656 82° East 252 290 6,100 -300 Descending Boston Center
10:26AM 41.1156 -70.1794 76° East 246 283 6,100 -360 Level Boston Center
10:27AM 41.2500 -70.0500 317° Northwest  Level FlightAware Approximate
10:27AM 41.1342 -70.1028 72° East 224 258 5,400  Level Boston Center
10:28AM 41.1550 -70.0147 73° East 250 288 5,000 -180 Descending Boston Center
10:29AM 41.1939 -69.9500 51° Northeast 233 268 5,100  Climbing Boston Center
10:30AM 41.2464 -69.8833 44° Northeast 219 252 5,100 -720 Level Boston Center
10:31AM 41.2883 -69.8300 44° Northeast 213 245 3,600 -1,140 Descending Boston Center
10:33AM 41.3817 -69.8733 257° West 216 249 1,700 -660 Descending Boston Center
10:34AM 41.3600 -69.9225 240° Southwest 168 193 1,700 -180 Level Boston Center
10:37AM 41.2992 -70.0011 221° Southwest 150 173 1,200 -300 Descending Boston Center
10:39AM 41.2530 -70.0599 259° West  Level Estimated
10:46AM 41.2530 -70.0599 259° West  Level Estimated